Grand Gorge, New York
Current Conditions -  °F | °C
As of 10:51 PM on Sunday 25 Jan 2015 (Local Time) from KALB Reporting Station
Broken Clouds Broken Clouds  
Wind Chill: -15°   Ceiling: 22000
Heat Index: -10°   Visibility: 10mi
Dew Point: -18°   Wind: 6mph
Humidity: 54%   Direction: 50°NE
Pressure: 30.08"   Gusts: NA
Location:  42.36°N, 74.49°W
Report Text: KALB 260351Z 05005KT 10SM BKN220 BKN250 M10/M18 A3008 RMK AO2 SLP189 T11001178
Loading
Personal Weather Stations






























Interactive Weather Map New forecast layout! Learn more

10-Day Weather Forecast

Advertisements
Track Severe Weather on mobile